createdAt,value
2019-02-10T00:02:59.107Z,99811.65
2019-02-10T00:06:03.630Z,99814.97
2019-02-10T00:09:08.067Z,99832.07
2019-02-10T00:12:12.390Z,99820.73
2019-02-10T00:15:19.172Z,99821.08
2019-02-10T00:18:23.933Z,99827.63
2019-02-10T00:21:30.389Z,99833.92
2019-02-10T00:24:34.792Z,99832.13
2019-02-10T00:27:39.107Z,99825.86
2019-02-10T00:30:43.389Z,99828.60
2019-02-10T00:33:47.773Z,99824.55
2019-02-10T00:36:54.070Z,99828.80
2019-02-10T00:39:58.387Z,99827.34
2019-02-10T00:43:04.873Z,99827.48
2019-02-10T00:46:09.178Z,99835.50
2019-02-10T00:49:13.509Z,99826.84
2019-02-10T00:52:17.784Z,99831.39
2019-02-10T00:55:22.134Z,99821.91
2019-02-10T00:58:26.402Z,99818.64
2019-02-10T01:01:30.846Z,99806.72
2019-02-10T01:04:38.122Z,99813.16
2019-02-10T01:07:42.468Z,99818.55
2019-02-10T01:10:46.776Z,99833.84
2019-02-10T01:13:51.068Z,99824.80
2019-02-10T01:16:55.406Z,99818.59
2019-02-10T01:19:59.657Z,99824.06
2019-02-10T01:23:05.034Z,99828.02
2019-02-10T01:26:09.728Z,99822.16
2019-02-10T01:29:16.261Z,99832.55
2019-02-10T01:32:20.654Z,99837.30
2019-02-10T01:35:25.034Z,99833.97
2019-02-10T01:38:33.940Z,99836.88
2019-02-10T01:41:38.217Z,99835.08
2019-02-10T01:44:42.547Z,99829.11
2019-02-10T01:47:49.680Z,99822.52
2019-02-10T01:50:56.311Z,99824.63
2019-02-10T01:54:00.598Z,99821.20
2019-02-10T01:57:04.902Z,99815.93
2019-02-10T02:00:11.177Z,99821.55
2019-02-10T02:03:15.456Z,99816.87
2019-02-10T02:06:19.750Z,99804.31
2019-02-10T02:09:24.442Z,99805.09
2019-02-10T02:12:30.500Z,99805.19
2019-02-10T02:15:35.210Z,99786.14
2019-02-10T02:18:39.503Z,99778.95
2019-02-10T02:21:43.875Z,99773.24
2019-02-10T02:24:48.158Z,99771.39
2019-02-10T02:27:52.718Z,99775.18
2019-02-10T02:30:59.075Z,99755.11
2019-02-10T02:34:03.396Z,99759.81
2019-02-10T02:37:08.435Z,99753.95
2019-02-10T02:40:12.946Z,99746.55
2019-02-10T02:43:17.217Z,99735.70
2019-02-10T02:46:21.586Z,99742.14
2019-02-10T02:49:25.857Z,99742.14
2019-02-10T02:52:32.977Z,99737.89
2019-02-10T02:55:37.447Z,99729.87
2019-02-10T02:58:41.721Z,99722.80
2019-02-10T03:01:48.050Z,99714.66
2019-02-10T03:04:52.455Z,99721.84
2019-02-10T03:07:56.716Z,99718.89
2019-02-10T03:11:01.313Z,99720.41
2019-02-10T03:14:10.105Z,99707.11
2019-02-10T03:17:14.613Z,99703.41
2019-02-10T03:20:21.965Z,99698.20
2019-02-10T03:23:26.227Z,99691.84
2019-02-10T03:26:30.522Z,99688.65
2019-02-10T03:29:36.831Z,99678.55
2019-02-10T03:32:42.239Z,99680.42
2019-02-10T03:35:46.621Z,99679.97
2019-02-10T03:38:53.466Z,99673.83
2019-02-10T03:41:57.755Z,99671.33
2019-02-10T03:45:02.030Z,99666.97
2019-02-10T03:48:06.436Z,99665.70
2019-02-10T03:51:10.728Z,99653.73
2019-02-10T03:54:15.020Z,99660.31
2019-02-10T03:57:25.421Z,99647.92
2019-02-10T04:00:29.656Z,99637.06
2019-02-10T04:03:33.941Z,99642.52
2019-02-10T04:06:38.509Z,99644.58
2019-02-10T04:09:42.898Z,99637.11
2019-02-10T04:12:47.529Z,99634.72
2019-02-10T04:15:51.880Z,99625.41
2019-02-10T04:18:56.130Z,99620.50
2019-02-10T04:22:00.409Z,99617.42
2019-02-10T04:25:05.209Z,99612.77
2019-02-10T04:28:09.506Z,99614.22
2019-02-10T04:31:13.768Z,99611.56
2019-02-10T04:34:18.067Z,99607.42
2019-02-10T04:37:22.389Z,99605.85
2019-02-10T04:40:26.784Z,99601.56
2019-02-10T04:43:31.313Z,99592.78
2019-02-10T04:46:35.778Z,99588.81
2019-02-10T04:49:40.188Z,99585.84
2019-02-10T04:52:47.542Z,99584.58
2019-02-10T04:56:20.528Z,99575.53
2019-02-10T04:59:24.820Z,99570.63
2019-02-10T05:02:29.223Z,99563.14
2019-02-10T05:05:35.424Z,99564.28
2019-02-10T05:08:39.729Z,99564.78
2019-02-10T05:11:44.004Z,99566.99
2019-02-10T05:14:48.388Z,99560.63
2019-02-10T05:17:54.709Z,99552.27
2019-02-10T05:20:59.117Z,99548.94
2019-02-10T05:24:03.955Z,99559.94
2019-02-10T05:27:08.365Z,99558.81
2019-02-10T05:30:12.689Z,99540.38
2019-02-10T05:33:16.989Z,99536.92
2019-02-10T05:36:21.288Z,99529.31
2019-02-10T05:39:25.594Z,99528.17
2019-02-10T05:42:29.961Z,99520.76
2019-02-10T05:45:35.337Z,99517.95
2019-02-10T05:48:40.074Z,99512.23
2019-02-10T05:51:44.673Z,99514.73
2019-02-10T05:54:51.136Z,99499.39
2019-02-10T05:57:55.420Z,99497.66
2019-02-10T06:01:36.309Z,99492.73
2019-02-10T06:04:42.351Z,99482.80
2019-02-10T06:07:46.765Z,99476.58
2019-02-10T06:10:51.084Z,99466.66
2019-02-10T06:13:55.367Z,99466.59
2019-02-10T06:16:59.661Z,99463.52
2019-02-10T06:20:04.332Z,99457.74
2019-02-10T06:23:08.620Z,99456.92
2019-02-10T06:26:13.023Z,99450.01
2019-02-10T06:29:17.406Z,99446.87
2019-02-10T06:32:21.709Z,99451.75
2019-02-10T06:35:28.297Z,99440.58
2019-02-10T06:38:33.069Z,99434.73
2019-02-10T06:41:37.373Z,99434.09
2019-02-10T06:44:41.695Z,99428.39
2019-02-10T06:47:48.069Z,99423.80
2019-02-10T06:50:52.382Z,99432.97
2019-02-10T06:53:56.682Z,99426.89
2019-02-10T06:57:00.998Z,99426.05
2019-02-10T07:00:31.982Z,99427.00
2019-02-10T07:03:57.972Z,99428.81
2019-02-10T07:07:04.286Z,99429.50
2019-02-10T07:10:08.820Z,99422.04
2019-02-10T07:13:17.589Z,99421.93
2019-02-10T07:17:05.430Z,99414.70
2019-02-10T07:20:43.740Z,99413.80
2019-02-10T07:23:58.294Z,99409.84
2019-02-10T07:27:30.286Z,99409.42
2019-02-10T07:30:41.713Z,99406.70
2019-02-10T07:34:31.456Z,99402.25
2019-02-10T07:38:19.514Z,99404.83
2019-02-10T07:42:03.746Z,99397.47
2019-02-10T07:45:43.900Z,99392.38
2019-02-10T07:49:11.486Z,99388.68
2019-02-10T07:53:06.380Z,99386.17
2019-02-10T07:56:54.421Z,99379.13
2019-02-10T08:00:25.673Z,99364.35
2019-02-10T08:04:03.894Z,99350.98
2019-02-10T08:07:36.369Z,99349.72
2019-02-10T08:11:15.172Z,99336.64
2019-02-10T08:14:52.223Z,99342.11
2019-02-10T08:18:43.756Z,99337.23
2019-02-10T08:22:14.007Z,99327.91
2019-02-10T08:25:45.927Z,99315.55
2019-02-10T08:29:18.210Z,99307.63
2019-02-10T08:32:48.435Z,99306.48
2019-02-10T08:36:21.523Z,99303.94
2019-02-10T08:39:50.527Z,99294.89
2019-02-10T08:43:41.671Z,99282.26
2019-02-10T08:47:08.325Z,99288.10
2019-02-10T08:51:02.592Z,99272.06
2019-02-10T08:54:07.413Z,99259.09
2019-02-10T08:57:11.842Z,99251.53
2019-02-10T09:00:16.153Z,99253.30
2019-02-10T09:03:20.413Z,99246.13
2019-02-10T09:06:24.727Z,99234.41
2019-02-10T09:09:29.027Z,99233.96
2019-02-10T09:12:33.320Z,99220.50
2019-02-10T09:15:37.671Z,99217.31
2019-02-10T09:18:41.954Z,99218.58
2019-02-10T09:21:46.362Z,99209.55
2019-02-10T09:24:50.747Z,99201.48
2019-02-10T09:27:55.104Z,99188.73
2019-02-10T09:30:59.462Z,99168.52
2019-02-10T09:34:03.833Z,99158.73
2019-02-10T09:37:08.110Z,99159.90
2019-02-10T09:40:12.822Z,99146.41
2019-02-10T09:43:17.112Z,99135.85
2019-02-10T09:46:21.623Z,99130.05
2019-02-10T09:49:25.903Z,99112.54
2019-02-10T09:52:31.972Z,99106.81
2019-02-10T09:55:36.273Z,99106.36
2019-02-10T09:58:40.586Z,99094.25
2019-02-10T10:01:44.886Z,99072.33
2019-02-10T10:04:49.235Z,99074.63
2019-02-10T10:07:53.568Z,99068.65
2019-02-10T10:10:57.862Z,99073.70
2019-02-10T10:14:02.164Z,99073.92
2019-02-10T10:17:06.594Z,99070.95
2019-02-10T10:20:12.809Z,99055.39
2019-02-10T10:23:17.140Z,99046.88
2019-02-10T10:26:21.437Z,99052.52
2019-02-10T10:29:25.742Z,99075.41
2019-02-10T10:32:31.128Z,99065.98
2019-02-10T10:35:35.505Z,99072.77
2019-02-10T10:38:39.984Z,99081.64
2019-02-10T10:41:44.373Z,99075.41
2019-02-10T10:44:48.672Z,99077.16
2019-02-10T10:47:52.972Z,99080.48
2019-02-10T10:50:57.274Z,99063.42
2019-02-10T10:54:01.685Z,99042.42
2019-02-10T10:57:06.290Z,99032.98
2019-02-10T11:00:11.935Z,99034.89
2019-02-10T11:03:17.287Z,99022.34
2019-02-10T11:06:21.724Z,99007.89
2019-02-10T11:09:26.048Z,99002.91
2019-02-10T11:12:30.461Z,98995.27
2019-02-10T11:15:34.747Z,98979.56
2019-02-10T11:18:39.036Z,98971.58
2019-02-10T11:21:43.447Z,98976.16
2019-02-10T11:24:52.522Z,98974.56
2019-02-10T11:27:57.017Z,98965.05
2019-02-10T11:31:01.653Z,98964.07
2019-02-10T11:34:05.957Z,98955.56
2019-02-10T11:37:10.341Z,98929.43
2019-02-10T11:40:14.805Z,98925.95
2019-02-10T11:43:25.316Z,98922.27
2019-02-10T11:46:32.565Z,98918.94
2019-02-10T11:49:37.425Z,98905.21
2019-02-10T11:52:50.840Z,98895.63
2019-02-10T11:56:03.942Z,98887.36
2019-02-10T11:59:17.951Z,98873.19
2019-02-10T12:02:37.935Z,98865.44
2019-02-10T12:05:41.875Z,98854.84
2019-02-10T12:08:51.873Z,98853.80
2019-02-10T12:11:57.608Z,98848.17
2019-02-10T12:15:02.435Z,98826.00
2019-02-10T12:18:07.162Z,98805.94
2019-02-10T12:21:11.896Z,98795.70
2019-02-10T12:24:16.550Z,98785.70
2019-02-10T12:27:21.153Z,98775.82
2019-02-10T12:30:25.789Z,98765.67
2019-02-10T12:33:30.308Z,98758.81
2019-02-10T12:36:35.108Z,98754.81
2019-02-10T12:39:40.038Z,98752.81
2019-02-10T12:42:44.612Z,98749.34
2019-02-10T12:45:49.913Z,98735.12
2019-02-10T12:48:54.196Z,98723.42
2019-02-10T12:52:01.487Z,98731.67
2019-02-10T12:55:06.595Z,98722.95
2019-02-10T12:58:10.978Z,98712.50
2019-02-10T13:01:15.282Z,98698.78
2019-02-10T13:04:19.741Z,98711.08
2019-02-10T13:07:24.020Z,98706.52
2019-02-10T13:10:29.097Z,98698.83
2019-02-10T13:13:33.467Z,98688.70
2019-02-10T13:16:37.842Z,98685.03
2019-02-10T13:19:42.158Z,98687.19
2019-02-10T13:22:46.476Z,98689.34
2019-02-10T13:25:50.791Z,98687.23
2019-02-10T13:28:55.093Z,98675.06
2019-02-10T13:31:59.486Z,98661.61
2019-02-10T13:35:04.109Z,98649.27
2019-02-10T13:38:08.415Z,98659.11
2019-02-10T13:41:12.691Z,98662.61
2019-02-10T13:44:17.230Z,98662.61
2019-02-10T13:47:21.538Z,98672.97
2019-02-10T13:50:26.048Z,98661.77
2019-02-10T13:53:30.367Z,98656.50
2019-02-10T13:56:36.634Z,98649.27
2019-02-10T13:59:41.015Z,98637.78
2019-02-10T14:02:45.650Z,98641.70
2019-02-10T14:05:49.935Z,98645.80
2019-02-10T14:08:54.243Z,98651.69
2019-02-10T14:11:58.538Z,98646.48
2019-02-10T14:15:02.845Z,98650.13
2019-02-10T14:18:08.806Z,98639.20
2019-02-10T14:21:13.192Z,98642.01
2019-02-10T14:24:17.934Z,98624.09
2019-02-10T14:27:22.383Z,98614.29
2019-02-10T14:30:26.677Z,98614.66
2019-02-10T14:33:38.869Z,98616.53
2019-02-10T14:36:41.917Z,98608.88
2019-02-10T14:39:46.372Z,98613.70
2019-02-10T14:42:50.652Z,98607.67
2019-02-10T14:45:55.052Z,98599.80
2019-02-10T14:48:59.472Z,98600.05
2019-02-10T14:52:03.806Z,98594.16
2019-02-10T14:55:08.317Z,98590.27
2019-02-10T14:58:12.619Z,98576.59
2019-02-10T15:01:16.921Z,98574.64
2019-02-10T15:04:23.616Z,98575.34
2019-02-10T15:07:28.163Z,98562.20
2019-02-10T15:10:32.471Z,98553.52
2019-02-10T15:13:36.996Z,98569.97
2019-02-10T15:16:41.315Z,98563.80
2019-02-10T15:19:45.683Z,98573.92
2019-02-10T15:22:50.211Z,98562.52
2019-02-10T15:25:55.793Z,98555.87
2019-02-10T15:29:01.838Z,98565.19
2019-02-10T15:32:06.322Z,98563.45
2019-02-10T15:35:10.718Z,98564.88
2019-02-10T15:38:15.029Z,98563.21
2019-02-10T15:41:21.345Z,98569.48
2019-02-10T15:44:25.650Z,98572.89
2019-02-10T15:47:29.948Z,98570.99
2019-02-10T15:50:35.729Z,98571.11
2019-02-10T15:53:40.050Z,98573.42
2019-02-10T15:56:44.572Z,98574.44
2019-02-10T15:59:48.876Z,98571.34
2019-02-10T16:02:53.203Z,98567.05
2019-02-10T16:05:57.576Z,98568.77
2019-02-10T16:09:02.038Z,98571.02
2019-02-10T16:12:06.340Z,98576.16
2019-02-10T16:15:11.351Z,98573.55
2019-02-10T16:18:15.650Z,98573.70
2019-02-10T16:21:20.063Z,98570.61
2019-02-10T16:24:24.467Z,98575.45
2019-02-10T16:27:29.023Z,98581.23
2019-02-10T16:30:33.436Z,98582.91
2019-02-10T16:33:37.877Z,98583.09
2019-02-10T16:36:45.460Z,98589.94
2019-02-10T16:39:50.035Z,98588.10
2019-02-10T16:42:57.253Z,98589.94
2019-02-10T16:46:01.585Z,98592.30
2019-02-10T16:49:05.960Z,98583.75
2019-02-10T16:52:13.359Z,98578.22
2019-02-10T16:55:17.803Z,98578.17
2019-02-10T16:58:22.139Z,98573.75
2019-02-10T17:01:26.757Z,98574.26
2019-02-10T17:04:31.218Z,98582.45
2019-02-10T17:07:35.696Z,98581.98
2019-02-10T17:10:42.860Z,98588.06
2019-02-10T17:13:49.873Z,98595.77
2019-02-10T17:16:54.310Z,98597.66
2019-02-10T17:19:58.663Z,98594.23
2019-02-10T17:23:02.967Z,98596.34
2019-02-10T17:26:07.252Z,98597.91
2019-02-10T17:29:11.553Z,98596.11
2019-02-10T17:32:15.970Z,98600.92
2019-02-10T17:35:20.584Z,98610.42
2019-02-10T17:38:26.602Z,98608.55
2019-02-10T17:41:35.185Z,98605.44
2019-02-10T17:44:39.486Z,98611.86
2019-02-10T17:47:43.801Z,98612.19
2019-02-10T17:50:49.567Z,98613.79
2019-02-10T17:53:54.001Z,98618.16
2019-02-10T17:56:58.354Z,98621.63
2019-02-10T18:00:02.907Z,98632.95
2019-02-10T18:03:07.200Z,98638.75
2019-02-10T18:06:11.598Z,98643.44
2019-02-10T18:09:15.981Z,98643.70
2019-02-10T18:12:20.434Z,98645.02
2019-02-10T18:15:42.674Z,98650.11
2019-02-10T18:19:03.788Z,98653.58
2019-02-10T18:22:24.186Z,98663.21
2019-02-10T18:25:56.424Z,98666.93
2019-02-10T18:29:25.819Z,98672.84
2019-02-10T18:32:58.759Z,98668.60
2019-02-10T18:36:37.505Z,98678.12
2019-02-10T18:39:52.643Z,98676.98
2019-02-10T18:43:14.852Z,98692.35
2019-02-10T18:46:32.494Z,98704.63
2019-02-10T18:49:59.132Z,98706.37
2019-02-10T18:53:18.865Z,98709.02
2019-02-10T18:56:36.311Z,98716.27
2019-02-10T19:00:04.997Z,98723.84
2019-02-10T19:03:40.906Z,98724.67
2019-02-10T19:07:10.159Z,98733.66
2019-02-10T19:10:36.600Z,98731.90
2019-02-10T19:13:59.902Z,98739.55
2019-02-10T19:17:22.177Z,98753.03
2019-02-10T19:20:45.820Z,98758.36
2019-02-10T19:24:09.365Z,98765.09
2019-02-10T19:27:31.757Z,98768.59
2019-02-10T19:30:55.537Z,98776.06
2019-02-10T19:34:19.190Z,98778.17
2019-02-10T19:37:58.328Z,98787.08
2019-02-10T19:41:21.944Z,98791.92
2019-02-10T19:44:54.755Z,98803.97
2019-02-10T19:48:21.286Z,98808.75
2019-02-10T19:52:03.616Z,98819.70
2019-02-10T19:55:33.747Z,98821.83
2019-02-10T19:59:09.621Z,98830.44
2019-02-10T20:02:22.882Z,98838.38
2019-02-10T20:05:45.389Z,98844.80
2019-02-10T20:09:09.066Z,98850.95
2019-02-10T20:12:44.828Z,98859.33
2019-02-10T20:15:58.360Z,98867.02
2019-02-10T20:19:15.200Z,98874.61
2019-02-10T20:22:28.724Z,98887.50
2019-02-10T20:25:51.005Z,98886.34
2019-02-10T20:29:23.840Z,98897.95
2019-02-10T20:32:37.087Z,98908.07
2019-02-10T20:36:01.072Z,98917.42
2019-02-10T20:39:25.830Z,98931.18
2019-02-10T20:42:55.011Z,98937.41
2019-02-10T20:46:16.180Z,98942.17
2019-02-10T20:49:29.809Z,98951.75
2019-02-10T20:52:52.874Z,98956.31
2019-02-10T20:56:11.748Z,98966.64
2019-02-10T20:59:38.204Z,98976.29
2019-02-10T21:03:07.897Z,98980.45
2019-02-10T21:06:34.326Z,98983.07
2019-02-10T21:09:56.432Z,98991.77
2019-02-10T21:13:22.883Z,99001.18
2019-02-10T21:16:44.961Z,99021.18
2019-02-10T21:20:08.417Z,99025.80
2019-02-10T21:23:31.669Z,99034.27
2019-02-10T21:27:04.034Z,99045.12
2019-02-10T21:30:31.926Z,99048.08
2019-02-10T21:33:52.272Z,99051.20
2019-02-10T21:37:06.724Z,99068.12
2019-02-10T21:40:32.068Z,99067.57
2019-02-10T21:43:42.509Z,99083.35
2019-02-10T21:47:04.225Z,99096.38
2019-02-10T21:50:08.738Z,99107.10
2019-02-10T21:53:13.059Z,99115.42
2019-02-10T21:56:17.336Z,99124.61
2019-02-10T21:59:21.855Z,99125.20
2019-02-10T22:02:26.407Z,99128.07
2019-02-10T22:05:30.723Z,99127.41
2019-02-10T22:08:35.106Z,99138.87
2019-02-10T22:11:39.401Z,99139.97
2019-02-10T22:14:43.805Z,99148.44
2019-02-10T22:17:48.306Z,99159.89
2019-02-10T22:20:52.627Z,99163.05
2019-02-10T22:23:57.034Z,99164.42
2019-02-10T22:27:01.439Z,99179.52
2019-02-10T22:30:08.159Z,99189.60
2019-02-10T22:33:14.286Z,99198.84
2019-02-10T22:36:18.569Z,99194.71
2019-02-10T22:39:22.919Z,99204.52
2019-02-10T22:42:27.239Z,99212.80
2019-02-10T22:45:31.546Z,99214.40
2019-02-10T22:48:37.145Z,99216.87
2019-02-10T22:51:41.527Z,99220.82
2019-02-10T22:54:45.818Z,99231.38
2019-02-10T22:57:50.240Z,99234.52
2019-02-10T23:01:02.068Z,99246.02
2019-02-10T23:04:06.430Z,99242.52
2019-02-10T23:07:11.060Z,99252.50
2019-02-10T23:10:15.441Z,99254.69
2019-02-10T23:13:19.717Z,99262.95
2019-02-10T23:16:24.103Z,99268.70
2019-02-10T23:19:28.392Z,99267.97
2019-02-10T23:22:34.733Z,99272.45
2019-02-10T23:25:39.031Z,99284.23
2019-02-10T23:28:43.539Z,99290.31
2019-02-10T23:31:48.819Z,99296.80
2019-02-10T23:34:53.154Z,99293.41
2019-02-10T23:38:00.343Z,99304.86
2019-02-10T23:41:04.625Z,99310.07
2019-02-10T23:44:09.029Z,99319.22
2019-02-10T23:47:13.352Z,99334.91
2019-02-10T23:50:17.630Z,99334.14
2019-02-10T23:53:21.920Z,99341.17
2019-02-10T23:56:26.195Z,99359.83
2019-02-10T23:59:30.742Z,99365.03
